Airport ID:KJTC
Update Time (UTC):13/07/2020 21:25
Wind Speed (Knots):15
Wind Direction (Magnetic):90
Temperature (°C):25
Dew Point (°C):10
Humidity (%):42
Altimeter (inHg):30.31
Density Altitude (Feet):9400
Visibility:10+
Clouds (Hundreds of feet):FEW039 FEW055 SCT110
Present Weather:
METAR:METAR KJTC 132120Z AUTO 10016G22KT 10SM FEW055 FEW075 SCT110 25/11 A3032 RMK AO2 LTG DSNT NE

The data displayed is for advisory purposes only and is not to be used for flight planning or operations.